Time;durP1;ratioP1;P1;durP2;ratioP2;P2;SDS_P1;SDS_P2;PMS_P1;PMS_P2;Temp;Humidity;BMP_temperature;BMP_pressure;BME280_temperature;BME280_humidity;BME280_pressure;Samples;Min_cycle;Max_cycle;Signal;HPM_P1;HPM_P2
2021/05/24 00:01:15;;;;;;;6.63;3.80;;;;;;;16.73;100.00;94995.44;10410382;28;20013;-79
2021/05/24 00:06:16;;;;;;;6.75;3.78;;;;;;;16.82;100.00;95000.94;10410757;28;20028;-80
2021/05/24 00:11:17;;;;;;;8.10;4.43;;;;;;;16.79;100.00;95001.53;10409020;28;20025;-80
2021/05/24 00:16:18;;;;;;;5.32;3.72;;;;;;;16.88;100.00;94999.75;10409399;28;20378;-79
2021/05/24 00:21:20;;;;;;;5.35;3.45;;;;;;;16.68;100.00;94998.25;10408959;28;20096;-78
2021/05/24 00:26:20;;;;;;;5.93;3.63;;;;;;;16.71;100.00;95011.19;10407565;28;20049;-79
2021/05/24 00:31:21;;;;;;;13.67;4.50;;;;;;;16.58;100.00;95020.19;10409599;28;20424;-80
2021/05/24 00:36:21;;;;;;;7.97;3.80;;;;;;;16.64;100.00;95029.03;10409958;28;20330;-79
2021/05/24 00:41:22;;;;;;;12.17;5.10;;;;;;;16.60;100.00;95034.25;10410460;28;20045;-80
2021/05/24 00:46:22;;;;;;;14.50;4.28;;;;;;;16.55;100.00;95046.03;10409328;28;20018;-80
2021/05/24 00:51:23;;;;;;;6.27;3.97;;;;;;;16.42;100.00;95073.16;10407684;28;20071;-79
2021/05/24 00:56:24;;;;;;;10.65;3.97;;;;;;;16.05;100.00;95067.63;10407976;28;20041;-80
2021/05/24 01:01:28;;;;;;;5.90;4.07;;;;;;;16.09;100.00;95065.91;10407017;28;20397;-79
2021/05/24 01:06:28;;;;;;;10.70;4.70;;;;;;;16.04;100.00;95074.94;10406710;28;20048;-80
2021/05/24 01:11:29;;;;;;;7.80;4.30;;;;;;;15.77;100.00;95086.50;10407768;28;20032;-80
2021/05/24 01:16:30;;;;;;;11.45;4.68;;;;;;;15.79;100.00;95078.91;10408325;28;20108;-79
2021/05/24 01:21:30;;;;;;;6.47;4.35;;;;;;;15.80;100.00;95082.44;10406863;28;20053;-79
2021/05/24 01:26:31;;;;;;;11.00;4.20;;;;;;;15.98;100.00;95094.31;10407333;28;20124;-80
2021/05/24 01:31:31;;;;;;;5.83;3.93;;;;;;;16.01;100.00;95094.50;10407249;28;20060;-79
2021/05/24 01:36:32;;;;;;;6.87;4.33;;;;;;;15.95;100.00;95097.59;10408048;28;20272;-80
2021/05/24 01:41:33;;;;;;;7.28;4.22;;;;;;;15.89;100.00;95108.56;10408212;28;20299;-80
2021/05/24 01:46:33;;;;;;;8.57;4.53;;;;;;;15.89;100.00;95110.44;10408552;28;20045;-81
2021/05/24 01:51:34;;;;;;;8.30;3.80;;;;;;;15.93;100.00;95108.75;10406586;28;20110;-79
2021/05/24 01:56:34;;;;;;;8.07;4.15;;;;;;;15.95;100.00;95113.88;10405707;28;20091;-78
2021/05/24 02:01:35;;;;;;;8.53;4.00;;;;;;;15.97;100.00;95115.19;10404291;28;20018;-78
2021/05/24 02:06:35;;;;;;;7.35;2.75;;;;;;;16.01;100.00;95126.25;10405730;28;20108;-80
2021/05/24 02:11:36;;;;;;;11.30;3.60;;;;;;;16.08;100.00;95117.72;10407659;28;20496;-80
2021/05/24 02:16:42;;;;;;;8.07;2.92;;;;;;;16.13;100.00;95117.63;10405527;28;20350;-79
2021/05/24 02:21:42;;;;;;;8.05;2.90;;;;;;;16.08;100.00;95118.53;10406642;28;20049;-80
2021/05/24 02:26:44;;;;;;;9.48;3.03;;;;;;;16.12;100.00;95122.25;10405357;28;20152;-79
2021/05/24 02:31:45;;;;;;;14.43;3.50;;;;;;;16.13;100.00;95126.59;10404303;28;20038;-79
2021/05/24 02:36:45;;;;;;;14.87;2.90;;;;;;;16.20;100.00;95127.00;10403644;28;20029;-79
2021/05/24 02:41:46;;;;;;;9.87;2.73;;;;;;;16.19;100.00;95140.84;10402132;28;20029;-79
2021/05/24 02:46:46;;;;;;;4.63;2.08;;;;;;;16.08;100.00;95131.28;10404463;28;20671;-79
2021/05/24 02:51:46;;;;;;;6.07;2.87;;;;;;;16.10;100.00;95146.13;10404404;28;20032;-81
2021/05/24 02:56:47;;;;;;;8.88;2.60;;;;;;;16.11;100.00;95149.66;10405075;28;20044;-79
2021/05/24 03:01:47;;;;;;;11.77;2.83;;;;;;;16.14;100.00;95163.41;10406208;28;20021;-81
2021/05/24 03:06:48;;;;;;;14.00;2.80;;;;;;;16.18;100.00;95166.34;10407483;28;20337;-81
2021/05/24 03:11:48;;;;;;;6.77;1.83;;;;;;;16.14;100.00;95178.91;10406772;28;20083;-80
2021/05/24 03:16:49;;;;;;;5.23;2.37;;;;;;;16.15;100.00;95175.88;10401527;28;20037;-80
2021/05/24 03:21:49;;;;;;;7.75;2.90;;;;;;;16.10;100.00;95175.97;10401528;28;20330;-80
2021/05/24 03:26:50;;;;;;;5.77;2.10;;;;;;;16.23;100.00;95188.75;10400449;28;20131;-81
2021/05/24 03:31:51;;;;;;;8.68;2.15;;;;;;;16.21;100.00;95207.25;10401091;28;20038;-81
2021/05/24 03:36:51;;;;;;;8.80;2.72;;;;;;;16.29;100.00;95223.94;10399750;28;20021;-81
2021/05/24 03:41:52;;;;;;;7.55;2.72;;;;;;;16.39;100.00;95235.41;10400769;28;20397;-81
2021/05/24 03:46:52;;;;;;;6.87;2.10;;;;;;;16.50;100.00;95246.88;10421875;28;20029;-81
2021/05/24 03:51:53;;;;;;;11.43;3.20;;;;;;;16.52;100.00;95260.16;10407808;28;20481;-81
2021/05/24 03:56:53;;;;;;;3.22;2.10;;;;;;;16.59;100.00;95266.03;10408556;28;20333;-82
2021/05/24 04:01:54;;;;;;;11.43;2.63;;;;;;;16.51;100.00;95269.41;10426569;28;20024;-74
2021/05/24 04:06:58;;;;;;;4.68;2.20;;;;;;;16.57;100.00;95274.44;10450587;28;20276;-76
2021/05/24 04:11:58;;;;;;;9.00;2.55;;;;;;;16.77;100.00;95280.59;10431666;28;20032;-76
2021/05/24 04:16:59;;;;;;;8.60;2.87;;;;;;;16.74;100.00;95286.63;10407763;28;20029;-77
2021/05/24 04:21:59;;;;;;;9.50;2.20;;;;;;;16.78;100.00;95295.81;10408109;28;20026;-78
2021/05/24 04:27:00;;;;;;;11.67;2.73;;;;;;;16.94;100.00;95306.41;10416903;28;20156;-77
2021/05/24 04:32:00;;;;;;;5.97;2.17;;;;;;;17.31;100.00;95310.06;10447291;28;20040;-78
2021/05/24 04:37:00;;;;;;;7.30;2.73;;;;;;;17.66;100.00;95305.03;10447700;28;20271;-77
2021/05/24 04:42:04;;;;;;;10.63;2.10;;;;;;;17.59;100.00;95306.22;10446342;28;20033;-77
2021/05/24 04:47:05;;;;;;;11.30;2.67;;;;;;;17.68;100.00;95303.63;10417644;28;20338;-78
2021/05/24 04:52:06;;;;;;;7.93;1.98;;;;;;;17.86;100.00;95322.81;10406571;28;20052;-76
2021/05/24 04:57:06;;;;;;;6.87;2.07;;;;;;;18.26;100.00;95315.66;10407443;28;20033;-77
2021/05/24 05:02:07;;;;;;;6.83;2.03;;;;;;;18.18;100.00;95327.31;10407721;28;20953;-77
2021/05/24 05:07:07;;;;;;;10.48;1.60;;;;;;;18.28;100.00;95335.22;10407764;28;20279;-77
2021/05/24 05:12:08;;;;;;;10.57;2.23;;;;;;;18.64;100.00;95335.50;10410373;28;20067;-79
2021/05/24 05:17:08;;;;;;;14.20;1.77;;;;;;;19.07;100.00;95354.06;10424323;28;20025;-72
2021/05/24 05:22:09;;;;;;;7.32;2.00;;;;;;;18.79;100.00;95362.34;10415297;28;20025;-72
2021/05/24 05:27:09;;;;;;;7.53;2.10;;;;;;;19.23;100.00;95368.09;10440745;28;20052;-72
2021/05/24 05:32:09;;;;;;;14.13;2.00;;;;;;;20.03;100.00;95381.72;10407922;28;20295;-72
2021/05/24 05:37:10;;;;;;;9.38;2.20;;;;;;;20.31;100.00;95382.25;10433269;28;20283;-73
2021/05/24 05:42:11;;;;;;;7.28;1.95;;;;;;;20.32;100.00;95385.78;10446635;28;20025;-72
2021/05/24 05:47:11;;;;;;;5.80;1.70;;;;;;;20.74;100.00;95382.63;10446198;28;20064;-72
2021/05/24 05:52:11;;;;;;;8.43;2.30;;;;;;;20.76;100.00;95385.81;10438333;28;20091;-72
2021/05/24 05:57:13;;;;;;;2.37;1.57;;;;;;;21.22;100.00;95376.09;10414741;28;20029;-73
2021/05/24 06:02:13;;;;;;;7.07;1.63;;;;;;;22.32;95.66;95393.84;10404649;28;20054;-73
2021/05/24 06:07:14;;;;;;;10.43;1.50;;;;;;;23.49;87.65;95403.19;10404119;28;20065;-73
2021/05/24 06:12:15;;;;;;;5.85;1.40;;;;;;;24.81;74.24;95400.34;10403963;28;20099;-73
2021/05/24 06:17:15;;;;;;;9.73;2.30;;;;;;;24.70;74.04;95389.00;10404427;28;20037;-73
2021/05/24 06:22:16;;;;;;;2.57;1.37;;;;;;;23.62;76.79;95385.59;10405212;28;20428;-76
2021/05/24 06:27:17;;;;;;;10.75;1.98;;;;;;;24.44;76.27;95391.34;10404130;28;20307;-73
2021/05/24 06:32:17;;;;;;;9.90;1.50;;;;;;;25.59;66.44;95383.56;10403830;28;20029;-73
2021/05/24 06:37:18;;;;;;;7.47;1.87;;;;;;;26.39;64.80;95378.84;10404001;28;20282;-74
2021/05/24 06:42:18;;;;;;;6.85;1.52;;;;;;;26.98;56.77;95384.44;10399291;28;20510;-74
2021/05/24 06:47:19;;;;;;;11.35;1.30;;;;;;;27.60;51.32;95383.63;10422389;28;20041;-73
2021/05/24 06:52:19;;;;;;;16.38;2.50;;;;;;;27.75;48.44;95373.66;10419271;28;20036;-75
2021/05/24 06:57:19;;;;;;;10.97;1.53;;;;;;;28.32;47.94;95371.00;10403301;28;20030;-75
2021/05/24 07:02:20;;;;;;;11.70;1.23;;;;;;;27.55;48.47;95367.41;10401178;28;20581;-75
2021/05/24 07:07:20;;;;;;;12.53;1.63;;;;;;;28.91;47.37;95368.66;10402774;28;20367;-75
2021/05/24 07:12:21;;;;;;;3.55;1.73;;;;;;;29.81;43.08;95372.41;10403370;28;20383;-74
2021/05/24 07:17:21;;;;;;;5.90;1.53;;;;;;;30.35;42.82;95366.50;10404406;28;20026;-74
2021/05/24 07:22:22;;;;;;;5.40;1.42;;;;;;;29.59;40.80;95376.94;10423198;28;20021;-75
2021/05/24 07:27:23;;;;;;;4.05;1.30;;;;;;;28.30;44.37;95370.59;10439023;28;20097;-75
2021/05/24 07:32:23;;;;;;;11.88;2.00;;;;;;;29.64;41.47;95362.75;10451846;28;20039;-74
2021/05/24 07:37:24;;;;;;;3.90;1.48;;;;;;;31.05;38.48;95379.59;10412552;28;20034;-75
2021/05/24 07:42:25;;;;;;;4.25;1.10;;;;;;;31.47;38.52;95376.16;10410006;28;20023;-75
2021/05/24 07:47:25;;;;;;;5.63;1.55;;;;;;;32.82;37.35;95373.00;10410858;28;20037;-75
2021/05/24 07:52:26;;;;;;;4.43;1.67;;;;;;;33.17;33.16;95374.06;10410305;28;20036;-75
2021/05/24 07:57:27;;;;;;;7.28;1.52;;;;;;;33.09;33.72;95371.69;10409935;28;20045;-75
2021/05/24 08:02:27;;;;;;;6.47;1.27;;;;;;;33.12;33.14;95365.34;10409614;28;20056;-75
2021/05/24 08:07:28;;;;;;;7.07;1.50;;;;;;;33.84;32.43;95362.97;10409920;28;20041;-75
2021/05/24 08:12:28;;;;;;;7.90;1.50;;;;;;;34.11;32.75;95356.75;10410210;28;20428;-75
2021/05/24 08:17:28;;;;;;;7.67;1.70;;;;;;;34.87;31.18;95365.22;10410221;28;20034;-75
2021/05/24 08:22:29;;;;;;;3.83;1.10;;;;;;;34.82;31.13;95367.69;10410158;28;20026;-75
2021/05/24 08:27:29;;;;;;;4.70;1.30;;;;;;;35.39;30.13;95368.97;10409006;28;20128;-75
2021/05/24 08:32:29;;;;;;;5.00;1.07;;;;;;;34.39;30.03;95357.72;10408632;28;20034;-75
2021/05/24 08:37:30;;;;;;;1.87;1.00;;;;;;;34.22;29.71;95357.47;10409707;28;20432;-75
2021/05/24 08:42:33;;;;;;;7.15;1.40;;;;;;;32.22;31.61;95357.19;10408935;28;20746;-75
2021/05/24 08:47:34;;;;;;;8.73;1.90;;;;;;;33.56;31.17;95344.41;10408368;28;20104;-75
2021/05/24 08:52:34;;;;;;;7.57;1.40;;;;;;;34.42;29.34;95317.81;10408842;28;20025;-75
2021/05/24 08:57:39;;;;;;;6.47;1.38;;;;;;;33.77;30.40;95326.78;10408761;28;20079;-75
2021/05/24 09:03:00;;;;;;;6.38;1.55;;;;;;;34.63;30.07;95313.22;10408279;28;20022;-75
2021/05/24 09:08:04;;;;;;;8.68;1.00;;;;;;;35.14;29.76;95317.00;10406829;28;20139;-75
2021/05/24 09:13:13;;;;;;;6.80;1.88;;;;;;;35.61;28.65;95310.75;10407934;28;20048;-75
2021/05/24 09:18:15;;;;;;;2.95;1.40;;;;;;;35.66;29.03;95282.31;10407724;28;20021;-76
2021/05/24 09:23:20;;;;;;;2.55;1.20;;;;;;;35.57;27.84;95271.69;10406936;28;20485;-75
2021/05/24 09:28:46;;;;;;;4.15;1.30;;;;;;;35.30;27.90;95284.84;10418270;28;20033;-75
2021/05/24 09:33:49;;;;;;;7.13;1.52;;;;;;;34.15;28.60;95292.59;10435569;28;20043;-75
2021/05/24 09:38:51;;;;;;;6.18;1.25;;;;;;;34.48;29.91;95293.03;10443652;28;20021;-74
2021/05/24 09:43:53;;;;;;;4.93;1.67;;;;;;;35.01;29.69;95286.06;10437864;28;20021;-75
2021/05/24 09:49:03;;;;;;;4.60;1.10;;;;;;;35.02;28.65;95286.84;10443058;28;20024;-74
2021/05/24 09:54:09;;;;;;;6.30;1.40;;;;;;;34.80;28.99;95283.50;10444908;28;20025;-75
2021/05/24 09:59:17;;;;;;;6.07;1.60;;;;;;;35.52;28.52;95283.34;10444782;28;20086;-75
2021/05/24 10:04:24;;;;;;;14.50;2.35;;;;;;;36.30;27.39;95267.66;10441903;28;20025;-77
2021/05/24 10:09:24;;;;;;;5.82;1.20;;;;;;;37.07;26.07;95258.13;10453389;28;20843;-77
2021/05/24 10:14:25;;;;;;;7.13;1.40;;;;;;;37.93;27.01;95255.34;10439461;28;20025;-77
2021/05/24 10:19:26;;;;;;;2.33;1.33;;;;;;;37.68;26.12;95243.91;10441818;28;20095;-77
2021/05/24 10:24:26;;;;;;;6.72;1.63;;;;;;;35.97;26.83;95247.88;10443094;28;20052;-76
2021/05/24 10:29:29;;;;;;;4.88;1.33;;;;;;;33.27;30.87;95249.06;10435973;28;20033;-75
2021/05/24 10:34:36;;;;;;;10.65;1.60;;;;;;;31.96;31.95;95257.09;10428655;28;20407;-82
2021/05/24 10:39:44;;;;;;;5.15;1.58;;;;;;;33.74;32.25;95243.91;10446400;28;20090;-83
2021/05/24 10:44:47;;;;;;;4.38;1.38;;;;;;;36.23;28.35;95251.81;10448845;28;20024;-83
2021/05/24 10:50:07;;;;;;;7.55;1.27;;;;;;;36.72;25.35;95245.66;10441978;28;20491;-83
2021/05/24 10:55:46;;;;;;;5.70;1.60;;;;;;;36.38;28.07;95239.13;10437111;28;20037;-82
2021/05/24 11:00:50;;;;;;;5.72;1.58;;;;;;;35.32;28.89;95227.34;10407369;28;20033;-82
2021/05/24 11:06:10;;;;;;;9.10;1.70;;;;;;;33.77;29.60;95218.03;10450833;28;20844;-83
2021/05/24 11:11:25;;;;;;;13.05;1.90;;;;;;;32.41;31.74;95226.00;10419994;28;20033;-82
2021/05/24 11:16:26;;;;;;;8.85;1.40;;;;;;;31.00;32.65;95223.31;10424133;28;20025;-82
2021/05/24 11:21:27;;;;;;;10.05;2.25;;;;;;;29.94;34.86;95228.03;10456232;28;20396;-82
2021/05/24 11:26:35;;;;;;;8.57;1.60;;;;;;;30.09;33.45;95224.16;10457015;28;20056;-82
2021/05/24 11:31:39;;;;;;;7.10;2.15;;;;;;;29.77;36.45;95219.19;10455726;28;20033;-83
2021/05/24 11:36:39;;;;;;;6.00;1.70;;;;;;;29.44;34.28;95217.38;10454220;28;20028;-83
2021/05/24 11:42:02;;;;;;;5.33;2.13;;;;;;;29.14;34.13;95210.78;10456153;28;20037;-82
2021/05/24 11:47:08;;;;;;;8.55;2.28;;;;;;;28.63;37.43;95197.63;10457417;28;20461;-82
2021/05/24 11:52:11;;;;;;;9.63;1.92;;;;;;;28.06;38.65;95198.53;10457526;28;20475;-83
2021/05/24 11:57:11;;;;;;;6.78;2.13;;;;;;;27.29;39.93;95201.31;10457739;28;20029;-83
2021/05/24 12:02:12;;;;;;;12.00;2.27;;;;;;;27.66;36.11;95194.41;10457043;28;20101;-82
2021/05/24 12:07:16;;;;;;;7.05;1.92;;;;;;;28.03;37.46;95190.97;10455756;28;21027;-83
2021/05/24 12:12:24;;;;;;;13.55;2.10;;;;;;;27.36;41.58;95188.81;10455970;28;20064;-82
2021/05/24 12:17:27;;;;;;;7.10;1.80;;;;;;;27.47;40.78;95191.75;10455875;28;20033;-82
2021/05/24 12:22:33;;;;;;;7.10;2.47;;;;;;;27.88;37.25;95180.88;10455437;28;20021;-83
2021/05/24 12:27:34;;;;;;;5.45;1.90;;;;;;;28.28;36.79;95182.19;10455520;28;20191;-82
2021/05/24 12:32:37;;;;;;;14.40;2.23;;;;;;;28.33;37.21;95168.06;10454682;28;20402;-83
2021/05/24 12:37:46;;;;;;;5.88;2.50;;;;;;;28.42;36.78;95168.53;10454892;28;20040;-82
2021/05/24 12:42:50;;;;;;;8.55;2.78;;;;;;;28.50;38.63;95163.09;10454398;28;20058;-82
2021/05/24 12:47:52;;;;;;;6.80;2.70;;;;;;;28.38;38.07;95158.63;10428067;28;20041;-82
2021/05/24 12:52:52;;;;;;;7.75;2.30;;;;;;;27.48;39.23;95151.91;10412945;28;20055;-82
2021/05/24 12:57:53;;;;;;;8.65;2.25;;;;;;;27.49;38.51;95156.28;10413006;28;20031;-83
2021/05/24 13:02:53;;;;;;;15.93;2.43;;;;;;;27.82;38.12;95154.75;10440986;28;20090;-82
2021/05/24 13:07:56;;;;;;;7.57;2.13;;;;;;;27.91;35.82;95147.78;10450728;28;20029;-82
2021/05/24 13:13:01;;;;;;;8.32;2.17;;;;;;;27.76;37.58;95144.03;10448964;28;20408;-82
2021/05/24 13:33:42;;;;;;;14.03;3.00;;;;;;;27.58;38.44;95124.47;10450171;28;20036;-82
2021/05/24 13:39:04;;;;;;;6.72;2.70;;;;;;;27.52;36.48;95116.88;10448703;28;20286;-82
2021/05/24 13:44:08;;;;;;;3.45;2.05;;;;;;;27.44;36.87;95116.00;10449166;28;20021;-82
2021/05/24 13:49:12;;;;;;;10.88;2.70;;;;;;;27.34;36.53;95119.38;10449923;28;20053;-82
2021/05/24 13:54:12;;;;;;;8.55;2.85;;;;;;;27.21;36.23;95116.00;10448502;28;20025;-79
2021/05/24 13:59:13;;;;;;;18.00;2.30;;;;;;;27.11;38.21;95104.47;10419554;28;20025;-80
2021/05/24 14:04:16;;;;;;;18.83;4.63;;;;;;;27.03;38.67;95111.03;10414682;28;20040;-80
2021/05/24 14:09:16;;;;;;;17.45;3.88;;;;;;;27.14;38.44;95105.69;10443342;28;20468;-79
2021/05/24 14:14:16;;;;;;;10.95;2.40;;;;;;;26.98;37.58;95100.31;10439259;28;20045;-80
2021/05/24 14:19:17;;;;;;;12.93;2.70;;;;;;;26.97;37.03;95095.94;10445214;28;20408;-80
2021/05/24 14:24:17;;;;;;;14.33;2.83;;;;;;;26.75;39.02;95094.81;10445435;28;20507;-80
2021/05/24 14:29:18;;;;;;;8.87;2.40;;;;;;;26.48;37.63;95096.69;10445614;28;20116;-80
2021/05/24 14:34:18;;;;;;;7.93;2.45;;;;;;;26.35;38.68;95094.13;10445711;28;20029;-80
2021/05/24 14:39:19;;;;;;;7.18;1.80;;;;;;;26.38;38.20;95087.84;10444414;28;20040;-80
2021/05/24 14:44:19;;;;;;;8.23;2.13;;;;;;;26.30;37.79;95086.13;10432899;28;20033;-80
2021/05/24 14:49:20;;;;;;;10.60;2.57;;;;;;;26.21;38.35;95086.38;10404175;28;20283;-80
2021/05/24 14:54:20;;;;;;;14.23;2.67;;;;;;;26.27;39.25;95073.09;10404004;28;20060;-80
2021/05/24 14:59:20;;;;;;;8.25;2.20;;;;;;;26.22;39.08;95073.38;10444297;28;20055;-80
2021/05/24 15:04:21;;;;;;;4.93;2.37;;;;;;;26.18;39.99;95067.03;10445570;28;20025;-80
2021/05/24 15:09:21;;;;;;;13.70;2.03;;;;;;;26.16;38.50;95061.88;10428747;28;20040;-79
2021/05/24 15:14:22;;;;;;;11.40;3.23;;;;;;;26.24;39.08;95060.06;10412988;28;20126;-79
2021/05/24 15:19:23;;;;;;;14.68;3.05;;;;;;;26.24;40.03;95068.31;10402423;28;20736;-79
2021/05/24 15:24:23;;;;;;;6.47;2.10;;;;;;;26.18;39.60;95059.56;10417091;28;20045;-80
2021/05/24 15:29:26;;;;;;;7.47;2.20;;;;;;;26.09;39.57;95061.75;10402253;28;20331;-79
2021/05/24 15:34:28;;;;;;;8.18;2.70;;;;;;;26.11;40.76;95056.69;10400737;28;20461;-79
2021/05/24 15:39:28;;;;;;;7.53;1.75;;;;;;;26.04;39.31;95068.38;10400151;28;20033;-79
2021/05/24 15:44:29;;;;;;;11.00;2.70;;;;;;;25.96;39.78;95072.13;10406483;28;20025;-79
2021/05/24 15:49:30;;;;;;;18.40;2.38;;;;;;;25.82;41.50;95064.38;10410792;28;20099;-79
2021/05/24 15:54:32;;;;;;;8.40;2.00;;;;;;;25.86;41.06;95065.25;10410893;28;20091;-78
2021/05/24 15:59:33;;;;;;;11.32;2.65;;;;;;;25.87;41.02;95066.03;10410679;28;20144;-79
2021/05/24 16:04:34;;;;;;;6.72;2.67;;;;;;;25.90;41.84;95071.63;10414430;28;20025;-79
2021/05/24 16:09:35;;;;;;;8.05;2.05;;;;;;;25.86;41.04;95068.00;10451100;28;20546;-79
2021/05/24 16:14:35;;;;;;;9.73;2.28;;;;;;;25.76;42.24;95063.09;10449971;28;20400;-79
2021/05/24 16:19:36;;;;;;;9.82;2.08;;;;;;;25.74;41.86;95055.16;10450129;28;20037;-79
2021/05/24 16:24:53;;;;;;;10.13;1.98;;;;;;;25.66;42.23;95049.88;10450592;28;20049;-79
2021/05/24 16:29:53;;;;;;;7.87;2.50;;;;;;;25.59;42.54;95051.34;10450042;28;20040;-79
2021/05/24 16:34:54;;;;;;;14.50;2.40;;;;;;;25.55;42.78;95063.41;10449762;28;20430;-79
2021/05/24 16:39:54;;;;;;;7.20;2.27;;;;;;;25.46;42.96;95057.34;10450218;28;20488;-79
2021/05/24 16:44:54;;;;;;;5.93;2.23;;;;;;;25.44;43.31;95057.72;10449376;28;20040;-79
2021/05/24 16:49:55;;;;;;;13.00;2.43;;;;;;;25.23;43.86;95064.31;10449155;28;20127;-79
2021/05/24 16:54:55;;;;;;;7.63;2.60;;;;;;;25.30;44.21;95069.19;10448987;28;20832;-79
2021/05/24 16:59:55;;;;;;;9.50;2.40;;;;;;;25.23;45.16;95063.53;10448684;28;20037;-79
2021/05/24 17:04:56;;;;;;;16.70;2.40;;;;;;;25.20;45.28;95070.53;10448811;28;20025;-80
2021/05/24 17:09:56;;;;;;;8.10;2.10;;;;;;;25.10;46.29;95067.53;10448988;28;20365;-79
2021/05/24 17:14:56;;;;;;;16.10;2.27;;;;;;;24.99;47.08;95075.53;10448383;28;20033;-79
2021/05/24 17:19:57;;;;;;;7.07;2.03;;;;;;;24.89;47.19;95079.63;10447879;28;20040;-79
2021/05/24 17:24:58;;;;;;;6.05;2.35;;;;;;;24.70;48.61;95094.13;10447808;28;20056;-78
2021/05/24 17:29:59;;;;;;;14.60;2.67;;;;;;;24.62;49.93;95093.13;10447560;28;20093;-78
2021/05/24 17:34:59;;;;;;;12.07;3.10;;;;;;;24.58;50.47;95097.72;10447162;28;20090;-79
2021/05/24 17:40:00;;;;;;;9.53;2.50;;;;;;;24.50;51.84;95101.44;10447976;28;20029;-79
2021/05/24 17:45:01;;;;;;;12.40;2.22;;;;;;;24.37;54.36;95093.25;10446682;28;20272;-79
2021/05/24 17:50:06;;;;;;;9.37;2.97;;;;;;;24.23;57.04;95101.94;10440271;28;20029;-79
2021/05/24 17:55:09;;;;;;;13.80;3.05;;;;;;;24.15;60.48;95111.13;10418484;28;20310;-79
2021/05/24 18:00:11;;;;;;;13.02;4.35;;;;;;;23.96;65.06;95109.06;10422759;28;20025;-79
2021/05/24 18:05:13;;;;;;;14.68;3.85;;;;;;;23.83;68.47;95115.72;10442720;28;20484;-79
2021/05/24 18:10:14;;;;;;;13.90;4.40;;;;;;;23.70;71.64;95123.97;10442067;28;20025;-78
2021/05/24 18:15:19;;;;;;;11.65;3.15;;;;;;;23.35;90.89;95140.19;10442092;28;20472;-78
2021/05/24 18:20:22;;;;;;;11.65;3.88;;;;;;;22.94;94.67;95142.81;10440524;28;20812;-78
2021/05/24 18:25:23;;;;;;;12.70;3.15;;;;;;;22.65;94.85;95152.84;10442669;28;20045;-78
2021/05/24 18:30:27;;;;;;;15.90;3.67;;;;;;;22.62;94.72;95150.78;10443811;28;20033;-79
2021/05/24 18:35:32;;;;;;;9.65;3.38;;;;;;;22.52;95.10;95160.25;10439078;28;20345;-79
2021/05/24 18:40:33;;;;;;;15.00;3.67;;;;;;;22.34;97.51;95165.09;10440699;28;20411;-78
2021/05/24 18:45:33;;;;;;;13.32;4.38;;;;;;;22.25;97.89;95172.56;10436921;28;20473;-79
2021/05/24 18:50:36;;;;;;;8.63;4.10;;;;;;;22.13;98.61;95180.72;10442804;28;20031;-78
2021/05/24 18:55:36;;;;;;;12.38;3.05;;;;;;;22.07;98.96;95185.63;10442836;28;20103;-81
2021/05/24 19:00:37;;;;;;;13.18;3.40;;;;;;;21.87;98.18;95184.50;10443625;28;20020;-78
2021/05/24 19:10:57;;;;;;;5.88;2.75;;;;;;;21.71;97.68;95187.03;10438736;28;20029;-77
2021/05/24 19:15:58;;;;;;;10.70;3.65;;;;;;;21.55;100.00;95192.31;10409879;28;20033;-77
2021/05/24 19:20:58;;;;;;;8.43;2.75;;;;;;;21.45;100.00;95190.72;10452515;28;20025;-77
2021/05/24 19:26:01;;;;;;;10.60;3.38;;;;;;;21.36;100.00;95194.66;10428076;28;20045;-77
2021/05/24 19:31:01;;;;;;;8.82;2.97;;;;;;;21.14;100.00;95188.31;10454301;28;20033;-79
2021/05/24 19:36:03;;;;;;;10.80;3.10;;;;;;;21.02;100.00;95188.25;10444230;28;20397;-79
2021/05/24 19:41:04;;;;;;;7.47;3.53;;;;;;;20.85;100.00;95203.59;10419476;28;20020;-79
2021/05/24 19:46:11;;;;;;;7.18;3.22;;;;;;;20.57;100.00;95198.50;10448815;28;20032;-78
2021/05/24 20:28:25;;;;;;;10.18;2.20;;;;;;;20.51;100.00;95194.31;10447223;28;20045;-79
2021/05/24 20:33:26;;;;;;;12.23;3.85;;;;;;;20.61;100.00;95195.91;10453873;28;20492;-80
2021/05/24 20:38:26;;;;;;;5.80;2.23;;;;;;;20.74;99.20;95192.22;10428117;28;20063;-79
2021/05/24 20:43:27;;;;;;;7.57;1.97;;;;;;;20.86;99.01;95197.00;10410639;28;20029;-79
2021/05/24 20:48:27;;;;;;;5.68;2.47;;;;;;;20.93;97.63;95191.00;10410882;28;20666;-80
2021/05/24 20:53:28;;;;;;;8.47;2.70;;;;;;;21.05;96.43;95199.31;10410993;28;20034;-79
2021/05/24 20:58:31;;;;;;;4.68;2.38;;;;;;;20.91;98.24;95198.75;10412850;28;20083;-79
2021/05/24 21:03:32;;;;;;;10.50;2.10;;;;;;;20.87;99.97;95206.00;10410647;28;20506;-81
2021/05/24 21:08:33;;;;;;;9.10;2.63;;;;;;;20.81;100.00;95200.69;10449119;28;20021;-80
2021/05/24 21:13:33;;;;;;;6.95;3.25;;;;;;;20.70;100.00;95212.31;10451631;28;20322;-79
2021/05/24 21:18:34;;;;;;;7.53;2.75;;;;;;;20.54;100.00;95209.25;10450983;28;20136;-79
2021/05/24 21:23:34;;;;;;;7.70;3.78;;;;;;;20.56;100.00;95210.53;10454936;28;20492;-83
2021/05/24 21:28:38;;;;;;;8.23;3.22;;;;;;;20.49;100.00;95208.31;10447285;28;20025;-83
2021/05/24 21:39:04;;;;;;;10.77;2.97;;;;;;;20.43;100.00;95208.81;10443327;28;20033;-84
2021/05/24 21:44:09;;;;;;;8.77;3.25;;;;;;;20.45;100.00;95204.63;10468400;28;20021;-84
2021/05/24 21:49:10;;;;;;;7.13;3.03;;;;;;;20.43;100.00;95193.25;10454674;28;20025;-85
2021/05/24 21:54:10;;;;;;;4.97;2.85;;;;;;;20.46;100.00;95199.97;10455096;28;20878;-84
2021/05/24 21:59:11;;;;;;;11.33;3.37;;;;;;;20.36;100.00;95208.50;10454722;28;20028;-85
2021/05/24 22:04:11;;;;;;;7.03;3.53;;;;;;;20.32;100.00;95208.34;10452953;28;20025;-84
2021/05/24 22:09:12;;;;;;;8.53;2.93;;;;;;;20.22;100.00;95204.03;10454131;28;20029;-84
2021/05/24 22:14:12;;;;;;;12.95;3.38;;;;;;;20.20;100.00;95206.28;10453973;28;20021;-84
2021/05/24 22:19:13;;;;;;;10.90;3.42;;;;;;;20.14;100.00;95205.63;10453857;28;20124;-84
2021/05/24 22:24:13;;;;;;;8.68;4.40;;;;;;;20.04;100.00;95199.69;10453473;28;20041;-84
2021/05/24 22:29:14;;;;;;;9.63;3.80;;;;;;;19.91;100.00;95204.22;10453477;28;20040;-83
2021/05/24 22:34:14;;;;;;;5.72;3.45;;;;;;;19.76;100.00;95202.75;10453244;28;20028;-83
2021/05/24 22:39:16;;;;;;;11.35;4.07;;;;;;;19.64;100.00;95204.16;10453373;28;20029;-83
2021/05/24 22:44:17;;;;;;;5.32;3.58;;;;;;;19.57;100.00;95198.38;10453238;28;20104;-83
2021/05/24 22:49:18;;;;;;;7.65;4.40;;;;;;;19.46;100.00;95216.16;10453250;28;20025;-84
2021/05/24 22:54:19;;;;;;;6.32;3.50;;;;;;;19.43;100.00;95208.63;10459583;28;20029;-85
2021/05/24 22:59:19;;;;;;;5.07;3.97;;;;;;;19.34;100.00;95211.34;10460024;28;20026;-85
2021/05/24 23:04:21;;;;;;;10.47;3.93;;;;;;;19.25;100.00;95215.97;10461314;28;20027;-84
2021/05/24 23:09:21;;;;;;;9.15;3.65;;;;;;;19.25;100.00;95215.97;10461121;28;20025;-84
2021/05/24 23:14:35;;;;;;;10.27;3.83;;;;;;;19.23;100.00;95210.03;10459730;28;20028;-84
2021/05/24 23:19:35;;;;;;;7.57;4.20;;;;;;;19.17;100.00;95220.25;10460546;28;20666;-84
2021/05/24 23:24:35;;;;;;;12.00;4.87;;;;;;;18.97;100.00;95212.69;10460543;28;20052;-84
2021/05/24 23:29:36;;;;;;;6.30;4.30;;;;;;;18.81;100.00;95212.25;10459286;28;20048;-84
2021/05/24 23:34:37;;;;;;;11.87;4.40;;;;;;;18.73;100.00;95198.28;10459048;28;20035;-83
2021/05/24 23:39:38;;;;;;;7.03;4.55;;;;;;;18.64;100.00;95199.38;10461310;28;20060;-83
2021/05/24 23:44:38;;;;;;;6.95;4.55;;;;;;;18.54;100.00;95190.34;10459801;28;20083;-84
2021/05/24 23:49:38;;;;;;;8.63;4.77;;;;;;;18.42;100.00;95193.66;10459642;28;20446;-84
2021/05/24 23:54:39;;;;;;;8.48;4.72;;;;;;;18.39;100.00;95191.56;10449551;28;20064;-83
2021/05/24 23:59:39;;;;;;;9.93;5.70;;;;;;;18.33;100.00;95194.72;10451350;28;20472;-84
